KLNR/LNR METAR and TAF weather

Enter ICAO airport designator
Station Type Date Time Source
KLNR METAR 2021/08/02 02:56 UTC NOAA

KLNR 020256Z AUTO 00000KT 10SM CLR 16/13 A3015 RMK AO2 SLP203 T01560133 53009


Station Type Date Time Source
KLNR Decoded METAR 2021/08/02 02:56 UTC NOAA

LONE ROCK TRI-COUNTY REG, WI, United States (KLNR) 43-13N 090-11W 217M
Aug 01, 2021 - 10:56 PM EDT / 2021.08.02 0256 UTC
Wind: Calm:0
Visibility: 10 mile(s):0
Sky conditions: clear
Temperature: 60.1 F (15.6 C)
Dew Point: 55.9 F (13.3 C)
Relative Humidity: 86%
Pressure (altimeter): 30.15 in. Hg (1020 hPa)
Pressure tendency: 0.03 inches (0.9 hPa) higher than three hours ago
ob: KLNR 020256Z AUTO 00000KT 10SM CLR 16/13 A3015 RMK AO2 SLP203 T01560133 53009
cycle: 3

Station Type Date Time Source
KLNR TAF UTC NOAA

Error!

Example: see airport list